Time;durP1;ratioP1;P1;durP2;ratioP2;P2;SDS_P1;SDS_P2;PMS_P1;PMS_P2;Temp;Humidity;BMP_temperature;BMP_pressure;BME280_temperature;BME280_humidity;BME280_pressure;Samples;Min_cycle;Max_cycle;Signal;HPM_P1;HPM_P2
2023/04/07 00:00:21;;;;;;;21.15;11.90;;;6.10;77.80;;;;;;5048749;28;20045;-47
2023/04/07 00:02:47;;;;;;;17.42;11.93;;;6.00;78.90;;;;;;5050488;28;20450;-46
2023/04/07 00:05:14;;;;;;;17.10;11.32;;;6.00;79.30;;;;;;5050360;28;20466;-46
2023/04/07 00:07:40;;;;;;;17.35;12.30;;;5.90;80.30;;;;;;5049460;28;20090;-47
2023/04/07 00:10:07;;;;;;;18.85;12.55;;;5.80;80.50;;;;;;5050563;28;20466;-47
2023/04/07 00:12:32;;;;;;;19.30;12.73;;;5.80;81.30;;;;;;5049899;28;20028;-47
2023/04/07 00:14:58;;;;;;;21.35;12.90;;;5.80;81.80;;;;;;5048686;28;20013;-47
2023/04/07 00:17:23;;;;;;;18.67;13.13;;;5.70;81.60;;;;;;5049957;28;20093;-47
2023/04/07 00:19:49;;;;;;;19.45;14.63;;;5.70;82.20;;;;;;5049472;28;20025;-47
2023/04/07 00:22:15;;;;;;;19.88;13.95;;;5.60;83.40;;;;;;5049561;28;20075;-50
2023/04/07 00:24:40;;;;;;;20.58;14.73;;;5.60;83.00;;;;;;5049599;28;20385;-48
2023/04/07 00:27:06;;;;;;;18.90;12.80;;;5.50;83.30;;;;;;5049280;28;20079;-48
2023/04/07 00:29:31;;;;;;;20.30;13.73;;;5.50;84.50;;;;;;5049338;28;20045;-47
2023/04/07 00:31:57;;;;;;;25.30;14.75;;;5.50;85.20;;;;;;5049470;28;20021;-47
2023/04/07 00:34:22;;;;;;;19.73;14.05;;;5.40;85.10;;;;;;5049380;28;20025;-47
2023/04/07 00:36:51;;;;;;;19.30;13.65;;;5.30;85.50;;;;;;5049033;28;20414;-47
2023/04/07 00:39:17;;;;;;;27.10;15.57;;;5.30;85.90;;;;;;5049387;28;20167;-46
2023/04/07 00:41:44;;;;;;;22.38;14.55;;;5.30;86.50;;;;;;5049258;28;20546;-47
2023/04/07 00:44:10;;;;;;;20.48;13.98;;;5.20;87.20;;;;;;5049164;28;20407;-47
2023/04/07 00:46:35;;;;;;;20.60;13.77;;;5.20;89.00;;;;;;5048916;28;20021;-47
2023/04/07 00:49:01;;;;;;;19.23;13.95;;;5.10;90.00;;;;;;5047512;28;20023;-47
2023/04/07 00:51:27;;;;;;;21.67;15.13;;;5.00;90.70;;;;;;5049175;28;20029;-47
2023/04/07 00:53:53;;;;;;;24.77;15.38;;;5.00;90.40;;;;;;5049246;28;20391;-47
2023/04/07 00:56:19;;;;;;;20.00;14.10;;;5.00;91.10;;;;;;5048783;28;20398;-47
2023/04/07 00:58:45;;;;;;;22.25;14.65;;;4.90;91.60;;;;;;5048794;28;20107;-48
2023/04/07 01:01:36;;;;;;;26.73;16.23;;;4.90;91.40;;;;;;5048686;28;20271;-47
2023/04/07 01:04:11;;;;;;;24.25;16.30;;;4.80;91.70;;;;;;5042981;28;20513;-47
2023/04/07 01:06:42;;;;;;;23.75;16.23;;;4.70;93.00;;;;;;5048542;28;20100;-47
2023/04/07 01:09:18;;;;;;;24.58;16.23;;;4.70;92.00;;;;;;5048633;28;20118;-47
2023/04/07 01:11:58;;;;;;;24.90;16.15;;;4.60;92.60;;;;;;5057112;28;20227;-47
2023/04/07 01:14:25;;;;;;;23.55;16.67;;;4.60;92.40;;;;;;5048700;28;20099;-48
2023/04/07 01:16:54;;;;;;;23.50;16.00;;;4.50;93.30;;;;;;5048252;28;20060;-47
2023/04/07 01:19:35;;;;;;;24.35;16.35;;;4.50;93.30;;;;;;5045220;28;20119;-48
2023/04/07 01:22:22;;;;;;;22.55;15.88;;;4.50;93.40;;;;;;5048542;28;20028;-47
2023/04/07 01:25:20;;;;;;;25.75;15.45;;;4.40;94.30;;;;;;5047558;28;20029;-46
2023/04/07 01:28:12;;;;;;;24.05;16.75;;;4.40;94.70;;;;;;5046730;28;20029;-48
2023/04/07 01:30:40;;;;;;;28.35;16.58;;;4.40;94.70;;;;;;5047223;28;20060;-46
2023/04/07 01:33:08;;;;;;;20.75;15.45;;;4.40;94.40;;;;;;5048749;28;20017;-49
2023/04/07 01:35:35;;;;;;;23.58;15.23;;;4.40;94.50;;;;;;5048612;28;20115;-47
2023/04/07 01:38:02;;;;;;;27.02;15.60;;;4.40;94.70;;;;;;5046898;28;20025;-46
2023/04/07 01:40:29;;;;;;;21.13;15.02;;;4.30;95.00;;;;;;5048888;28;20445;-48
2023/04/07 01:42:56;;;;;;;22.33;15.50;;;4.30;95.30;;;;;;5048133;28;20032;-47
2023/04/07 01:45:23;;;;;;;25.08;15.98;;;4.20;95.20;;;;;;5048318;28;20044;-48
2023/04/07 01:47:49;;;;;;;24.73;17.38;;;4.20;97.10;;;;;;5048296;28;20052;-46
2023/04/07 01:50:16;;;;;;;23.92;16.15;;;4.20;96.00;;;;;;5048659;28;20017;-47
2023/04/07 01:52:42;;;;;;;21.17;15.93;;;4.10;96.50;;;;;;5048183;28;20047;-47
2023/04/07 01:55:08;;;;;;;22.52;15.40;;;4.10;96.50;;;;;;5048198;28;20028;-50
2023/04/07 01:57:34;;;;;;;28.10;16.60;;;4.10;96.90;;;;;;5048567;28;20086;-47
2023/04/07 02:00:00;;;;;;;23.95;16.73;;;4.00;97.70;;;;;;5048275;28;20490;-49
2023/04/07 02:02:26;;;;;;;27.33;15.95;;;3.90;98.10;;;;;;5048685;28;20074;-50
2023/04/07 02:05:04;;;;;;;25.33;17.27;;;3.90;97.60;;;;;;5048453;28;20150;-49
2023/04/07 02:07:54;;;;;;;27.52;17.00;;;3.90;97.90;;;;;;5048009;28;20569;-48
2023/04/07 02:10:22;;;;;;;27.58;16.80;;;3.90;97.60;;;;;;5047993;28;20035;-48
2023/04/07 02:12:48;;;;;;;26.75;16.33;;;3.90;97.90;;;;;;5048216;28;20472;-47
2023/04/07 02:15:16;;;;;;;30.58;19.88;;;3.90;97.90;;;;;;5051150;28;20557;-46
2023/04/07 02:17:47;;;;;;;27.33;17.75;;;3.90;98.50;;;;;;5051402;28;20032;-49
2023/04/07 02:20:14;;;;;;;26.33;17.55;;;3.90;98.60;;;;;;5051982;28;20020;-46
2023/04/07 02:22:41;;;;;;;26.05;17.27;;;3.80;98.60;;;;;;5052010;28;20104;-46
2023/04/07 02:25:22;;;;;;;29.23;19.15;;;3.80;99.30;;;;;;5052191;28;20086;-47
2023/04/07 02:27:47;;;;;;;24.48;17.88;;;3.70;99.10;;;;;;5049981;28;20021;-50
2023/04/07 02:30:13;;;;;;;29.33;18.05;;;3.70;99.10;;;;;;5051755;28;20075;-46
2023/04/07 02:32:39;;;;;;;26.65;18.52;;;3.70;99.90;;;;;;5051027;28;20024;-49
2023/04/07 02:35:05;;;;;;;27.05;17.38;;;3.60;99.50;;;;;;5052092;28;20021;-46
2023/04/07 02:37:30;;;;;;;25.80;17.27;;;3.60;99.80;;;;;;5051692;28;20021;-46
2023/04/07 02:39:56;;;;;;;30.15;17.70;;;3.60;99.90;;;;;;5051442;28;20035;-47
2023/04/07 02:42:21;;;;;;;27.40;17.58;;;3.50;99.90;;;;;;5051661;28;20025;-48
2023/04/07 02:44:47;;;;;;;29.70;17.90;;;3.50;99.90;;;;;;5051490;28;20067;-48
2023/04/07 02:47:13;;;;;;;27.23;17.83;;;3.50;99.90;;;;;;5051397;28;20033;-50
2023/04/07 02:49:38;;;;;;;28.20;18.95;;;3.40;99.90;;;;;;5046614;28;20033;-47
2023/04/07 02:52:04;;;;;;;26.85;17.75;;;3.40;99.90;;;;;;5045706;28;20048;-47
2023/04/07 02:54:29;;;;;;;29.45;18.77;;;3.40;99.90;;;;;;5047989;28;20052;-45
2023/04/07 02:56:56;;;;;;;31.23;19.20;;;3.40;99.90;;;;;;5043340;28;20029;-47
2023/04/07 02:59:21;;;;;;;25.20;18.38;;;3.30;99.90;;;;;;5043519;28;20116;-48
2023/04/07 03:01:47;;;;;;;27.95;18.08;;;3.30;99.90;;;;;;5044383;28;20080;-46
2023/04/07 03:04:12;;;;;;;23.85;16.98;;;3.30;99.90;;;;;;5043892;28;20079;-47
2023/04/07 03:06:38;;;;;;;31.52;17.90;;;3.20;99.90;;;;;;5043262;28;20029;-49
2023/04/07 03:09:03;;;;;;;27.35;17.70;;;3.20;99.90;;;;;;5044766;28;20528;-47
2023/04/07 03:11:29;;;;;;;27.20;17.88;;;3.20;99.90;;;;;;5045407;28;20104;-49
2023/04/07 03:13:55;;;;;;;29.38;18.73;;;3.20;99.90;;;;;;5051216;28;20418;-47
2023/04/07 03:16:21;;;;;;;29.02;17.77;;;3.20;99.90;;;;;;5050909;28;20092;-47
2023/04/07 03:18:46;;;;;;;29.50;18.25;;;3.20;99.90;;;;;;5051104;28;20135;-47
2023/04/07 03:21:12;;;;;;;27.10;17.08;;;3.10;99.90;;;;;;5051214;28;20025;-47
2023/04/07 03:23:37;;;;;;;27.05;18.00;;;3.10;99.90;;;;;;5051345;28;20031;-47
2023/04/07 03:26:03;;;;;;;31.05;18.25;;;3.10;99.90;;;;;;5050415;28;20367;-49
2023/04/07 03:28:29;;;;;;;29.30;19.05;;;3.00;99.90;;;;;;5050618;28;20510;-47
2023/04/07 03:30:55;;;;;;;24.27;16.05;;;3.00;99.90;;;;;;5051065;28;20467;-48
2023/04/07 03:33:20;;;;;;;25.25;17.08;;;3.00;99.90;;;;;;5050395;28;20028;-51
2023/04/07 03:35:46;;;;;;;25.55;17.67;;;3.00;99.90;;;;;;5049564;28;20021;-49
2023/04/07 03:38:12;;;;;;;23.27;17.02;;;2.90;99.90;;;;;;5046255;28;20496;-48
2023/04/07 03:40:37;;;;;;;24.55;17.27;;;2.90;99.90;;;;;;5050753;28;20095;-47
2023/04/07 03:43:03;;;;;;;29.58;19.40;;;2.90;99.90;;;;;;5044386;28;20029;-49
2023/04/07 03:45:28;;;;;;;25.63;18.15;;;2.80;99.90;;;;;;5044996;28;20041;-49
2023/04/07 03:47:54;;;;;;;27.50;18.25;;;2.70;99.90;;;;;;5045221;28;20026;-47
2023/04/07 03:50:19;;;;;;;30.50;18.30;;;2.70;99.90;;;;;;5047002;28;20013;-47
2023/04/07 03:52:46;;;;;;;29.30;17.48;;;2.70;99.90;;;;;;5048666;28;20336;-47
2023/04/07 03:55:11;;;;;;;30.40;17.92;;;2.70;99.90;;;;;;5050417;28;20035;-50
2023/04/07 03:57:37;;;;;;;28.13;17.25;;;2.70;99.90;;;;;;5049691;28;20024;-48
2023/04/07 04:00:03;;;;;;;27.15;16.85;;;2.70;99.90;;;;;;5050456;28;20021;-48
2023/04/07 04:02:29;;;;;;;26.58;17.20;;;2.60;99.90;;;;;;5050163;28;20025;-51
2023/04/07 04:04:55;;;;;;;24.65;17.80;;;2.60;99.90;;;;;;5050524;28;20056;-49
2023/04/07 04:07:20;;;;;;;24.38;18.00;;;2.60;99.90;;;;;;5050326;28;20118;-51
2023/04/07 04:09:46;;;;;;;30.88;18.38;;;2.60;99.90;;;;;;5050075;28;20021;-48
2023/04/07 04:12:11;;;;;;;27.65;17.67;;;2.60;99.90;;;;;;5049891;28;20024;-47
2023/04/07 04:14:37;;;;;;;27.00;17.20;;;2.60;99.90;;;;;;5049882;28;20525;-47
2023/04/07 04:17:02;;;;;;;28.35;17.70;;;2.50;99.90;;;;;;5048123;28;20028;-47
2023/04/07 04:19:28;;;;;;;22.85;17.20;;;2.50;99.90;;;;;;5049639;28;20028;-47
2023/04/07 04:21:53;;;;;;;23.52;17.02;;;2.50;99.90;;;;;;5049620;28;20059;-47
2023/04/07 04:24:19;;;;;;;24.15;16.92;;;2.40;99.90;;;;;;5057870;28;20025;-48
2023/04/07 04:26:45;;;;;;;25.02;17.63;;;2.40;99.90;;;;;;5049400;28;20025;-47
2023/04/07 04:29:10;;;;;;;29.63;17.73;;;2.40;99.90;;;;;;5049503;28;20021;-48
2023/04/07 04:31:36;;;;;;;27.50;17.85;;;2.40;99.90;;;;;;5049800;28;20017;-47
2023/04/07 04:34:01;;;;;;;26.02;17.50;;;2.40;99.90;;;;;;5049789;28;20021;-49
2023/04/07 04:36:27;;;;;;;24.52;17.23;;;2.30;99.90;;;;;;5047576;28;20052;-47
2023/04/07 04:38:52;;;;;;;27.10;17.27;;;2.30;99.90;;;;;;5049313;28;20436;-48
2023/04/07 04:41:18;;;;;;;24.33;16.20;;;2.30;99.90;;;;;;5049570;28;20034;-49
2023/04/07 04:43:43;;;;;;;23.63;15.70;;;2.30;99.90;;;;;;5050108;28;20021;-47
2023/04/07 04:46:09;;;;;;;27.25;16.80;;;2.20;99.90;;;;;;5049160;28;20376;-47
2023/04/07 04:48:34;;;;;;;23.38;17.63;;;2.30;99.90;;;;;;5047574;28;20028;-47
2023/04/07 04:51:00;;;;;;;24.08;17.00;;;2.20;99.90;;;;;;5049163;28;20031;-47
2023/04/07 04:53:26;;;;;;;26.58;16.92;;;2.20;99.90;;;;;;5049207;28;20028;-49
2023/04/07 04:55:52;;;;;;;26.90;17.10;;;2.20;99.90;;;;;;5048962;28;20017;-47
2023/04/07 04:58:19;;;;;;;24.98;16.00;;;2.20;99.90;;;;;;5040965;28;20025;-47
2023/04/07 05:00:45;;;;;;;25.50;15.73;;;2.20;99.90;;;;;;5044377;28;20033;-48
2023/04/07 05:03:10;;;;;;;24.52;15.48;;;2.20;99.90;;;;;;5045808;28;20037;-47
2023/04/07 05:05:36;;;;;;;24.98;16.58;;;2.20;99.90;;;;;;5040507;28;20054;-48
2023/04/07 05:08:01;;;;;;;28.02;16.73;;;2.10;99.90;;;;;;5045277;28;20092;-50
2023/04/07 05:10:27;;;;;;;26.00;15.20;;;2.10;99.90;;;;;;5049227;28;20027;-47
2023/04/07 05:12:52;;;;;;;29.23;17.63;;;2.10;99.90;;;;;;5048596;28;20021;-47
2023/04/07 05:15:19;;;;;;;23.65;15.95;;;2.10;99.90;;;;;;5047318;28;20095;-47
2023/04/07 05:17:49;;;;;;;24.85;16.25;;;2.00;99.90;;;;;;5046819;28;20153;-46
2023/04/07 05:20:15;;;;;;;23.65;16.10;;;2.00;99.90;;;;;;5041500;28;20056;-47
2023/04/07 05:22:40;;;;;;;29.13;17.20;;;2.00;99.90;;;;;;5048575;28;20093;-47
2023/04/07 05:25:06;;;;;;;25.88;15.68;;;2.00;99.90;;;;;;5048830;28;20649;-47
2023/04/07 05:27:32;;;;;;;24.00;15.80;;;2.00;99.90;;;;;;5048344;28;20114;-48
2023/04/07 05:29:58;;;;;;;28.02;16.02;;;2.10;99.90;;;;;;5046783;28;20017;-47
2023/04/07 05:32:25;;;;;;;23.45;15.73;;;2.10;99.90;;;;;;5048420;28;20471;-46
2023/04/07 05:34:51;;;;;;;27.48;16.15;;;2.10;99.90;;;;;;5048477;28;20048;-47
2023/04/07 05:37:16;;;;;;;26.42;16.92;;;2.20;99.90;;;;;;5048691;28;20462;-47
2023/04/07 05:39:42;;;;;;;26.65;16.20;;;2.20;99.90;;;;;;5048091;28;20490;-47
2023/04/07 05:42:07;;;;;;;25.45;15.40;;;2.20;99.90;;;;;;5048379;28;20419;-48
2023/04/07 05:44:33;;;;;;;21.67;14.70;;;2.20;99.90;;;;;;5040946;28;20082;-47
2023/04/07 05:46:58;;;;;;;24.45;14.70;;;2.20;99.90;;;;;;5042255;28;20171;-47
2023/04/07 05:49:24;;;;;;;23.17;14.90;;;2.20;99.90;;;;;;5041661;28;20044;-47
2023/04/07 05:51:50;;;;;;;20.60;14.43;;;2.30;99.90;;;;;;5063584;28;20025;-47
2023/04/07 05:54:15;;;;;;;21.00;14.20;;;2.30;99.90;;;;;;5045110;28;20025;-46
2023/04/07 05:56:41;;;;;;;21.65;14.25;;;2.40;99.90;;;;;;5039307;28;20628;-47
2023/04/07 05:59:06;;;;;;;19.42;13.98;;;2.40;99.90;;;;;;5046603;28;20478;-46
2023/04/07 06:01:32;;;;;;;21.10;14.57;;;2.50;99.90;;;;;;5048023;28;20021;-46
2023/04/07 06:03:58;;;;;;;23.10;13.00;;;2.50;99.90;;;;;;5047635;28;20021;-47
2023/04/07 06:06:25;;;;;;;22.02;13.93;;;2.60;99.90;;;;;;5044661;28;20106;-52
2023/04/07 06:08:50;;;;;;;20.70;13.70;;;2.70;99.90;;;;;;5037704;28;20029;-47
2023/04/07 06:11:16;;;;;;;19.88;13.55;;;2.90;99.90;;;;;;5047993;28;20031;-46
2023/04/07 06:13:41;;;;;;;23.85;14.18;;;3.00;99.90;;;;;;5047871;28;20021;-47
2023/04/07 06:16:07;;;;;;;20.17;13.13;;;3.10;99.90;;;;;;5047943;28;20021;-46
2023/04/07 06:18:32;;;;;;;20.88;13.02;;;3.30;99.90;;;;;;5046645;28;20100;-47
2023/04/07 06:20:58;;;;;;;20.98;13.02;;;3.40;99.90;;;;;;5048218;28;20025;-48
2023/04/07 06:23:23;;;;;;;20.25;13.02;;;3.60;99.90;;;;;;5046609;28;20441;-47
2023/04/07 06:25:51;;;;;;;19.02;13.40;;;3.70;99.90;;;;;;5047843;28;20033;-47
2023/04/07 06:28:17;;;;;;;24.70;14.45;;;3.80;99.90;;;;;;5047530;28;20013;-48
2023/04/07 06:30:43;;;;;;;21.45;13.18;;;3.90;99.90;;;;;;5047859;28;20540;-47
2023/04/07 06:33:09;;;;;;;20.77;13.32;;;3.90;99.90;;;;;;5047830;28;20025;-47
2023/04/07 06:35:34;;;;;;;20.20;12.77;;;4.00;99.90;;;;;;5047807;28;20066;-47
2023/04/07 06:38:01;;;;;;;22.52;14.00;;;4.00;99.90;;;;;;5047130;28;20017;-50
2023/04/07 06:40:26;;;;;;;21.52;12.48;;;4.10;99.90;;;;;;5047667;28;20036;-48
2023/04/07 06:42:53;;;;;;;19.48;11.93;;;4.10;99.90;;;;;;5047379;28;20021;-47
2023/04/07 06:45:19;;;;;;;17.30;11.07;;;4.20;99.90;;;;;;5047579;28;20095;-48
2023/04/07 06:47:44;;;;;;;20.65;12.65;;;4.30;99.90;;;;;;5046841;28;20075;-47
2023/04/07 06:50:10;;;;;;;19.98;12.20;;;4.40;99.90;;;;;;5047875;28;20056;-48
2023/04/07 06:52:36;;;;;;;16.13;10.77;;;4.50;99.90;;;;;;5056019;28;20028;-47
2023/04/07 06:55:02;;;;;;;19.13;12.00;;;4.60;99.90;;;;;;5047568;28;20016;-49
2023/04/07 06:57:27;;;;;;;18.05;11.57;;;4.60;99.80;;;;;;5048075;28;20580;-47
2023/04/07 06:59:53;;;;;;;19.50;11.65;;;4.70;99.30;;;;;;5048383;28;20032;-50
2023/04/07 07:02:18;;;;;;;18.17;12.40;;;4.70;99.10;;;;;;5051490;28;20029;-48
2023/04/07 07:04:44;;;;;;;16.17;11.05;;;4.80;99.10;;;;;;5051162;28;20139;-47
2023/04/07 07:07:09;;;;;;;16.38;11.70;;;4.90;99.30;;;;;;5049941;28;20027;-48
2023/04/07 07:09:35;;;;;;;16.92;10.75;;;4.90;99.30;;;;;;5046842;28;20025;-50
2023/04/07 07:12:01;;;;;;;17.40;10.90;;;5.00;98.90;;;;;;5051034;28;20059;-48
2023/04/07 07:14:27;;;;;;;16.42;10.75;;;5.10;98.80;;;;;;5051268;28;20287;-47
2023/04/07 07:16:52;;;;;;;19.80;11.15;;;5.10;98.00;;;;;;5050902;28;20025;-47
2023/04/07 07:19:18;;;;;;;15.95;11.05;;;5.20;97.80;;;;;;5047493;28;20044;-47
2023/04/07 07:21:43;;;;;;;17.17;11.05;;;5.30;97.50;;;;;;5051089;28;20490;-47
2023/04/07 07:24:09;;;;;;;20.10;11.48;;;5.50;97.70;;;;;;5050950;28;20102;-47
2023/04/07 07:26:34;;;;;;;18.35;11.18;;;5.60;96.80;;;;;;5049248;28;20413;-48
2023/04/07 07:29:00;;;;;;;18.48;10.50;;;5.80;96.60;;;;;;5050269;28;20060;-49
2023/04/07 07:31:25;;;;;;;16.08;10.50;;;5.90;95.80;;;;;;5050841;28;20477;-48
2023/04/07 07:33:51;;;;;;;16.67;9.95;;;6.00;95.90;;;;;;5050428;28;20074;-46
2023/04/07 07:36:17;;;;;;;21.70;10.95;;;6.20;95.70;;;;;;5050338;28;20041;-48
2023/04/07 07:38:43;;;;;;;17.27;9.93;;;6.50;95.00;;;;;;5050229;28;20055;-46
2023/04/07 07:41:08;;;;;;;15.32;10.32;;;6.80;93.60;;;;;;5050681;28;20040;-48
2023/04/07 07:43:34;;;;;;;19.85;10.93;;;7.00;92.90;;;;;;5056494;28;20025;-50
2023/04/07 07:46:00;;;;;;;17.35;10.55;;;7.20;92.70;;;;;;5051262;28;20032;-49
2023/04/07 07:48:25;;;;;;;15.35;10.32;;;7.30;92.90;;;;;;5049834;28;20025;-47
2023/04/07 07:50:51;;;;;;;16.20;10.48;;;7.40;93.30;;;;;;5050326;28;20486;-47
2023/04/07 07:53:17;;;;;;;17.27;10.82;;;7.80;91.80;;;;;;5048999;28;20017;-47
2023/04/07 07:55:42;;;;;;;15.65;10.30;;;8.30;90.90;;;;;;5048730;28;20382;-47
2023/04/07 07:58:08;;;;;;;15.07;10.20;;;8.70;89.10;;;;;;5049565;28;20553;-47
2023/04/07 08:00:33;;;;;;;14.27;9.52;;;9.40;85.00;;;;;;5050167;28;20017;-47
2023/04/07 08:02:59;;;;;;;15.27;9.45;;;9.70;83.30;;;;;;5050033;28;20025;-46
2023/04/07 08:05:25;;;;;;;14.45;9.25;;;10.00;81.80;;;;;;5050300;28;20070;-45
2023/04/07 08:07:51;;;;;;;21.77;9.85;;;10.20;80.30;;;;;;5048406;28;20033;-46
2023/04/07 08:10:19;;;;;;;14.43;9.38;;;10.30;80.20;;;;;;5049698;28;20071;-48
2023/04/07 08:12:44;;;;;;;15.40;9.43;;;10.70;78.60;;;;;;5049662;28;20056;-49
2023/04/07 08:15:10;;;;;;;12.32;9.10;;;11.10;77.40;;;;;;5057693;28;20049;-47
2023/04/07 08:17:36;;;;;;;18.35;9.75;;;11.50;76.50;;;;;;5049624;28;20028;-47
2023/04/07 08:20:02;;;;;;;16.13;9.63;;;12.00;73.50;;;;;;5049439;28;20021;-48
2023/04/07 08:22:28;;;;;;;15.27;8.93;;;12.70;72.10;;;;;;5049283;28;20024;-47
2023/04/07 08:24:54;;;;;;;12.43;8.50;;;13.60;70.00;;;;;;5049369;28;20025;-49
2023/04/07 08:27:20;;;;;;;12.13;8.55;;;14.70;64.60;;;;;;5049239;28;20031;-49
2023/04/07 08:29:57;;;;;;;11.55;8.63;;;15.60;61.20;;;;;;5048985;28;20112;-49
2023/04/07 08:32:22;;;;;;;13.07;9.00;;;16.30;58.80;;;;;;5049150;28;20072;-47
2023/04/07 08:34:48;;;;;;;13.68;8.75;;;16.90;57.30;;;;;;5049355;28;20056;-47
2023/04/07 08:37:13;;;;;;;11.95;8.68;;;17.70;56.90;;;;;;5049265;28;20366;-50
2023/04/07 08:39:39;;;;;;;12.23;8.73;;;18.80;53.30;;;;;;5049062;28;20032;-48
2023/04/07 08:42:07;;;;;;;10.88;7.80;;;19.50;52.20;;;;;;5047542;28;20066;-47
2023/04/07 08:44:35;;;;;;;13.90;8.27;;;19.80;51.60;;;;;;5047978;28;20060;-48
2023/04/07 08:47:06;;;;;;;9.85;7.47;;;20.00;50.60;;;;;;5047344;28;20033;-47
2023/04/07 08:49:34;;;;;;;10.82;7.68;;;20.90;50.20;;;;;;5047744;28;20076;-48
2023/04/07 08:52:04;;;;;;;10.77;7.75;;;22.00;47.30;;;;;;5047520;28;20028;-46
2023/04/07 08:54:32;;;;;;;;;;;21.90;47.70;;;;;;5048086;28;20513;-48
2023/04/07 08:56:58;;;;;;;10.25;7.55;;;21.90;46.70;;;;;;5047382;28;19905;-46
2023/04/07 08:59:28;;;;;;;7.47;6.68;;;22.10;46.70;;;;;;5048218;28;20025;-46
2023/04/07 09:01:54;;;;;;;8.77;7.20;;;22.30;45.20;;;;;;5049121;28;20096;-47
2023/04/07 09:04:21;;;;;;;8.48;7.13;;;22.00;47.20;;;;;;5049513;28;20025;-46
2023/04/07 09:06:47;;;;;;;12.48;7.45;;;21.50;46.60;;;;;;5047545;28;20024;-46
2023/04/07 09:09:13;;;;;;;8.63;7.20;;;21.40;45.20;;;;;;5048378;28;20364;-46
2023/04/07 09:11:39;;;;;;;7.93;6.70;;;21.10;45.60;;;;;;5048757;28;20092;-49
2023/04/07 09:14:05;;;;;;;8.13;6.05;;;21.30;44.20;;;;;;5048901;28;20029;-47
2023/04/07 09:16:31;;;;;;;11.48;6.28;;;21.80;45.10;;;;;;5048818;28;20086;-48
2023/04/07 09:18:57;;;;;;;6.90;5.78;;;22.20;43.50;;;;;;5048679;28;20021;-47
2023/04/07 09:21:23;;;;;;;9.52;6.50;;;22.90;45.20;;;;;;5048680;28;20021;-47
2023/04/07 09:23:49;;;;;;;9.82;7.05;;;23.10;41.30;;;;;;5047762;28;20031;-47
2023/04/07 09:26:23;;;;;;;8.20;6.68;;;23.40;40.20;;;;;;5048150;28;20075;-48
2023/04/07 09:28:54;;;;;;;7.32;5.30;;;24.60;38.90;;;;;;5048104;28;20029;-46
2023/04/07 09:31:21;;;;;;;8.10;5.75;;;25.70;38.70;;;;;;5048622;28;20025;-47
2023/04/07 09:33:49;;;;;;;8.43;6.68;;;25.70;40.70;;;;;;5048177;28;20013;-48
2023/04/07 09:36:15;;;;;;;8.90;6.20;;;25.90;37.20;;;;;;5047596;28;20070;-47
2023/04/07 09:38:42;;;;;;;7.38;5.45;;;26.10;37.80;;;;;;5048299;28;20417;-47
2023/04/07 09:41:10;;;;;;;7.70;5.40;;;26.20;38.30;;;;;;5048229;28;20033;-49
2023/04/07 09:43:41;;;;;;;6.82;5.47;;;26.10;39.00;;;;;;5047939;28;20017;-47
2023/04/07 09:46:15;;;;;;;6.22;5.32;;;26.50;37.30;;;;;;5047880;28;20116;-49
2023/04/07 09:48:41;;;;;;;5.75;5.10;;;27.30;37.50;;;;;;5048028;28;20039;-47
2023/04/07 09:51:12;;;;;;;6.93;4.43;;;27.30;37.10;;;;;;5047796;28;20029;-47
2023/04/07 09:53:50;;;;;;;7.68;4.50;;;27.10;37.20;;;;;;5048457;28;20159;-50
2023/04/07 09:56:17;;;;;;;6.00;5.28;;;26.90;37.50;;;;;;5047577;28;20013;-48
2023/04/07 09:58:45;;;;;;;5.72;5.07;;;27.30;35.90;;;;;;5048741;28;20009;-47
2023/04/07 10:01:12;;;;;;;7.38;4.90;;;27.40;37.20;;;;;;5046792;28;20025;-48
2023/04/07 10:03:38;;;;;;;7.47;5.18;;;27.90;36.50;;;;;;5055201;28;20023;-48
2023/04/07 10:06:07;;;;;;;11.20;4.97;;;26.90;37.20;;;;;;5073241;28;20024;-47
2023/04/07 10:08:37;;;;;;;5.00;4.45;;;27.40;35.70;;;;;;5047819;28;20017;-48
2023/04/07 10:11:04;;;;;;;5.55;4.57;;;27.50;36.00;;;;;;5048571;28;20027;-47
2023/04/07 10:13:31;;;;;;;5.88;4.53;;;27.90;35.80;;;;;;5048282;28;20466;-49
2023/04/07 10:15:57;;;;;;;7.65;4.60;;;28.20;35.80;;;;;;5056452;28;20024;-51
2023/04/07 10:18:29;;;;;;;5.53;4.60;;;28.10;35.80;;;;;;5047700;28;20023;-49
2023/04/07 10:20:56;;;;;;;6.22;4.30;;;28.20;34.70;;;;;;5048459;28;20508;-50
2023/04/07 10:23:30;;;;;;;4.85;4.30;;;28.00;36.30;;;;;;5048026;28;20070;-50
2023/04/07 10:25:58;;;;;;;6.43;4.85;;;28.00;36.00;;;;;;5048332;28;20544;-49
2023/04/07 10:28:26;;;;;;;5.05;3.72;;;27.90;34.30;;;;;;5047801;28;20025;-49
2023/04/07 10:30:52;;;;;;;5.63;4.00;;;28.10;35.50;;;;;;5046906;28;20021;-48
2023/04/07 10:33:44;;;;;;;5.22;4.00;;;28.80;35.60;;;;;;5048020;28;20033;-50
2023/04/07 10:36:11;;;;;;;7.35;4.43;;;28.80;34.00;;;;;;5058732;28;20100;-48
2023/04/07 10:38:36;;;;;;;5.13;3.70;;;28.50;33.50;;;;;;5051713;28;20108;-48
2023/04/07 10:41:30;;;;;;;5.32;3.88;;;27.90;35.00;;;;;;5053387;28;20099;-50
2023/04/07 10:43:57;;;;;;;5.80;4.20;;;28.30;35.00;;;;;;5054209;28;20127;-49
2023/04/07 10:46:23;;;;;;;6.45;4.40;;;28.40;34.40;;;;;;5051324;28;20021;-49
2023/04/07 10:49:08;;;;;;;8.88;5.30;;;28.30;34.00;;;;;;5051298;28;20036;-49
2023/04/07 10:51:34;;;;;;;6.93;4.30;;;27.80;35.20;;;;;;5050150;28;20381;-47
2023/04/07 10:54:22;;;;;;;7.00;4.63;;;27.60;34.90;;;;;;5051584;28;20039;-51
2023/04/07 10:57:09;;;;;;;6.30;4.60;;;28.50;34.20;;;;;;5051260;28;20017;-51
2023/04/07 10:59:36;;;;;;;6.63;4.82;;;27.90;34.90;;;;;;5051175;28;20051;-50
2023/04/07 11:02:11;;;;;;;6.90;4.13;;;29.20;32.80;;;;;;5051483;28;20474;-47
2023/04/07 11:04:38;;;;;;;5.93;4.80;;;28.60;34.20;;;;;;5051454;28;20547;-49
2023/04/07 11:07:04;;;;;;;8.30;4.65;;;28.10;35.10;;;;;;5051052;28;20059;-49
2023/04/07 11:09:29;;;;;;;6.15;5.07;;;28.40;33.10;;;;;;5050693;28;20063;-50
2023/04/07 11:11:55;;;;;;;6.72;4.70;;;28.20;33.40;;;;;;5051069;28;20467;-50
2023/04/07 11:14:28;;;;;;;5.35;4.30;;;27.50;34.60;;;;;;5051217;28;20506;-47
2023/04/07 11:16:54;;;;;;;7.97;4.70;;;27.80;35.00;;;;;;5050983;28;20439;-49
2023/04/07 11:19:20;;;;;;;7.85;5.07;;;27.90;33.50;;;;;;5050254;28;20136;-48
2023/04/07 11:21:45;;;;;;;5.20;4.20;;;27.60;33.80;;;;;;5059219;28;20032;-49
2023/04/07 11:24:36;;;;;;;7.88;4.60;;;28.10;34.70;;;;;;5051041;28;20071;-48
2023/04/07 11:27:02;;;;;;;6.28;4.82;;;28.60;33.10;;;;;;5051087;28;20029;-48
2023/04/07 11:29:31;;;;;;;7.63;5.13;;;28.20;33.50;;;;;;5050444;28;20432;-48
2023/04/07 11:31:58;;;;;;;6.38;4.40;;;27.50;33.30;;;;;;5050538;28;20049;-48
2023/04/07 11:34:32;;;;;;;5.22;4.60;;;27.20;34.80;;;;;;5066268;28;20509;-48
2023/04/07 11:37:17;;;;;;;9.10;5.07;;;26.60;35.90;;;;;;5050441;28;20025;-47
2023/04/07 11:39:45;;;;;;;6.65;4.80;;;27.10;34.20;;;;;;5050439;28;20024;-47
2023/04/07 11:42:10;;;;;;;7.40;4.75;;;26.90;36.20;;;;;;5050686;28;20028;-51
2023/04/07 11:44:44;;;;;;;5.75;5.00;;;25.90;35.00;;;;;;5049617;28;20437;-47
2023/04/07 11:47:10;;;;;;;5.90;4.18;;;25.80;37.20;;;;;;5050098;28;20127;-47
2023/04/07 11:49:44;;;;;;;5.30;4.35;;;25.20;37.70;;;;;;5050166;28;20530;-47
2023/04/07 11:52:09;;;;;;;5.40;4.65;;;24.60;36.90;;;;;;5050618;28;20056;-50
2023/04/07 11:54:49;;;;;;;6.53;4.93;;;24.80;36.40;;;;;;5050636;28;20020;-46
2023/04/07 11:57:26;;;;;;;7.68;5.32;;;25.20;35.40;;;;;;5050381;28;20013;-47
2023/04/07 12:00:21;;;;;;;7.30;5.65;;;24.30;37.40;;;;;;5058480;28;20028;-46
2023/04/07 12:02:47;;;;;;;9.55;5.07;;;22.90;40.90;;;;;;5051389;28;20533;-46
2023/04/07 12:05:12;;;;;;;5.43;4.70;;;23.00;40.40;;;;;;5050347;28;20029;-47
2023/04/07 12:07:40;;;;;;;8.13;5.07;;;22.70;39.20;;;;;;5055038;28;20024;-50
2023/04/07 12:10:25;;;;;;;7.50;5.38;;;23.70;37.60;;;;;;5052404;28;20494;-47
2023/04/07 12:12:50;;;;;;;8.35;5.43;;;23.80;38.90;;;;;;5050442;28;20029;-48
2023/04/07 12:15:16;;;;;;;8.65;5.50;;;24.40;37.90;;;;;;5050210;28;20375;-46
2023/04/07 12:17:47;;;;;;;7.75;5.03;;;24.90;39.20;;;;;;5048457;28;20354;-47
2023/04/07 12:20:13;;;;;;;;;;;24.20;38.20;;;;;;5050330;28;20029;-47
2023/04/07 12:22:38;;;;;;;10.05;5.30;;;23.80;39.40;;;;;;5049965;28;19916;-46
2023/04/07 12:25:05;;;;;;;9.90;5.75;;;23.40;39.90;;;;;;5048528;28;20393;-49
2023/04/07 12:27:30;;;;;;;6.90;5.28;;;22.60;41.50;;;;;;5049607;28;20024;-48
2023/04/07 12:29:56;;;;;;;6.85;5.22;;;22.40;40.20;;;;;;5049821;28;20025;-47
2023/04/07 12:32:21;;;;;;;7.80;5.68;;;22.10;43.70;;;;;;5049757;28;20463;-48
2023/04/07 12:34:47;;;;;;;8.05;5.30;;;21.70;40.30;;;;;;5057905;28;20029;-48
2023/04/07 12:37:12;;;;;;;6.95;5.30;;;21.30;42.20;;;;;;5049249;28;20027;-49
2023/04/07 12:39:38;;;;;;;6.60;4.80;;;21.20;42.90;;;;;;5049209;28;20017;-47
2023/04/07 12:42:04;;;;;;;12.25;5.95;;;20.80;44.30;;;;;;5057837;28;20075;-47